Time;durP1;ratioP1;P1;durP2;ratioP2;P2;SDS_P1;SDS_P2;PMS_P1;PMS_P2;Temp;Humidity;BMP_temperature;BMP_pressure;BME280_temperature;BME280_humidity;BME280_pressure;Samples;Min_cycle;Max_cycle;Signal;HPM_P1;HPM_P2
2022/11/23 00:01:20;;;;;;;28.13;18.43;;;;;;;;;;5077079;28;20482;-70
2022/11/23 00:04:15;;;;;;;27.60;17.40;;;;;;;;;;5074938;28;20882;-70
2022/11/23 00:07:09;;;;;;;28.30;18.70;;;;;;;;;;5070539;28;21819;-70
2022/11/23 00:10:01;;;;;;;24.40;17.97;;;;;;;;;;5070967;28;20968;-70
2022/11/23 00:12:52;;;;;;;25.90;18.60;;;;;;;;;;5070930;28;20480;-70
2022/11/23 00:15:46;;;;;;;29.37;18.60;;;;;;;;;;5068599;28;22112;-70
2022/11/23 00:18:35;;;;;;;26.73;18.37;;;;;;;;;;5073776;28;20446;-70
2022/11/23 00:21:32;;;;;;;28.77;18.80;;;;;;;;;;5070535;28;20562;-70
2022/11/23 00:24:22;;;;;;;27.97;19.23;;;;;;;;;;5068801;28;20464;-70
2022/11/23 00:27:11;;;;;;;31.40;18.97;;;;;;;;;;5071596;28;20485;-70
2022/11/23 00:30:05;;;;;;;25.07;17.83;;;;;;;;;;5073335;28;20556;-70
2022/11/23 00:32:55;;;;;;;27.33;18.07;;;;;;;;;;5070794;28;20477;-71
2022/11/23 00:35:49;;;;;;;28.63;19.03;;;;;;;;;;5078997;28;20458;-70
2022/11/23 00:38:44;;;;;;;24.20;16.57;;;;;;;;;;5076945;28;20487;-70
2022/11/23 00:41:36;;;;;;;24.87;17.90;;;;;;;;;;5073530;28;20472;-70
2022/11/23 00:44:27;;;;;;;26.50;17.80;;;;;;;;;;5077641;28;20452;-70
2022/11/23 00:47:18;;;;;;;26.43;19.27;;;;;;;;;;5072372;28;20546;-70
2022/11/23 00:50:08;;;;;;;23.90;16.80;;;;;;;;;;5073647;28;20451;-70
2022/11/23 00:52:59;;;;;;;26.40;17.87;;;;;;;;;;5072295;28;20470;-70
2022/11/23 00:55:53;;;;;;;24.70;18.47;;;;;;;;;;5067390;28;20458;-70
2022/11/23 00:58:49;;;;;;;25.37;17.67;;;;;;;;;;5075741;28;20447;-70
2022/11/23 01:01:45;;;;;;;26.73;17.90;;;;;;;;;;5075020;28;20481;-70
2022/11/23 01:04:34;;;;;;;25.33;18.10;;;;;;;;;;5077014;28;20505;-70
2022/11/23 01:07:23;;;;;;;23.57;16.83;;;;;;;;;;5089235;28;20477;-70
2022/11/23 01:10:13;;;;;;;26.20;18.03;;;;;;;;;;5072723;28;20465;-70
2022/11/23 01:13:05;;;;;;;25.47;17.13;;;;;;;;;;5078518;28;20480;-70
2022/11/23 01:16:01;;;;;;;24.40;17.67;;;;;;;;;;5073934;28;20449;-70
2022/11/23 01:18:52;;;;;;;26.50;17.60;;;;;;;;;;5072395;28;20460;-70
2022/11/23 01:21:42;;;;;;;22.47;16.70;;;;;;;;;;5070447;28;20501;-71
2022/11/23 01:24:33;;;;;;;24.97;16.87;;;;;;;;;;5063625;28;20469;-70
2022/11/23 01:27:26;;;;;;;25.80;17.20;;;;;;;;;;5073707;28;20482;-70
2022/11/23 01:30:18;;;;;;;22.30;15.83;;;;;;;;;;5076932;28;20453;-70
2022/11/23 01:33:08;;;;;;;22.10;15.83;;;;;;;;;;5077017;28;20461;-70
2022/11/23 01:35:58;;;;;;;26.27;16.90;;;;;;;;;;5072696;28;20447;-71
2022/11/23 01:38:50;;;;;;;25.93;16.77;;;;;;;;;;5071088;28;20446;-71
2022/11/23 01:41:41;;;;;;;25.47;16.77;;;;;;;;;;5074461;28;20480;-71
2022/11/23 01:44:37;;;;;;;20.80;16.10;;;;;;;;;;5073832;28;20463;-71
2022/11/23 01:47:27;;;;;;;24.37;16.60;;;;;;;;;;5071404;28;21017;-71
2022/11/23 01:50:18;;;;;;;25.40;16.83;;;;;;;;;;5074959;28;20476;-71
2022/11/23 01:53:09;;;;;;;21.27;15.73;;;;;;;;;;5067460;28;20976;-71
2022/11/23 01:56:03;;;;;;;24.23;17.07;;;;;;;;;;5076374;28;20456;-71
2022/11/23 01:58:55;;;;;;;25.50;17.30;;;;;;;;;;5076377;28;20450;-70
2022/11/23 02:01:49;;;;;;;22.20;15.70;;;;;;;;;;5073047;28;21337;-70
2022/11/23 02:04:45;;;;;;;22.57;15.67;;;;;;;;;;5077449;28;20457;-70
2022/11/23 02:07:35;;;;;;;24.33;17.40;;;;;;;;;;5068479;28;20875;-70
2022/11/23 02:10:28;;;;;;;25.57;15.80;;;;;;;;;;5069875;28;20511;-71
2022/11/23 02:13:16;;;;;;;23.33;16.67;;;;;;;;;;5081234;28;20461;-71
2022/11/23 02:16:15;;;;;;;26.67;17.90;;;;;;;;;;5065636;28;20453;-70
2022/11/23 02:19:16;;;;;;;23.03;16.40;;;;;;;;;;5064686;28;20461;-71
2022/11/23 02:22:09;;;;;;;22.67;17.20;;;;;;;;;;5069221;28;20477;-71
2022/11/23 02:25:00;;;;;;;20.67;15.77;;;;;;;;;;5068268;28;20464;-71
2022/11/23 02:27:51;;;;;;;21.70;15.70;;;;;;;;;;5069536;28;20492;-71
2022/11/23 02:30:42;;;;;;;21.00;15.40;;;;;;;;;;5064614;28;20468;-70
2022/11/23 02:33:39;;;;;;;22.87;15.60;;;;;;;;;;5072274;28;21006;-70
2022/11/23 02:36:41;;;;;;;21.17;15.33;;;;;;;;;;5071329;28;21193;-71
2022/11/23 02:39:41;;;;;;;23.70;16.20;;;;;;;;;;5074179;28;20448;-70
2022/11/23 02:42:40;;;;;;;22.57;15.40;;;;;;;;;;5071444;28;20480;-70
2022/11/23 02:45:34;;;;;;;22.17;15.43;;;;;;;;;;5074465;28;20474;-71
2022/11/23 02:48:25;;;;;;;19.73;14.40;;;;;;;;;;5064553;28;21059;-70
2022/11/23 02:51:16;;;;;;;24.50;16.20;;;;;;;;;;5074187;28;20473;-71
2022/11/23 02:54:08;;;;;;;20.20;14.57;;;;;;;;;;5075802;28;20456;-71
2022/11/23 02:56:56;;;;;;;22.33;16.50;;;;;;;;;;5068682;28;20924;-70
2022/11/23 02:59:47;;;;;;;18.70;14.77;;;;;;;;;;5074943;28;20548;-70
2022/11/23 03:02:42;;;;;;;20.80;15.10;;;;;;;;;;5074691;28;20497;-70
2022/11/23 03:05:32;;;;;;;21.20;14.73;;;;;;;;;;5073184;28;20462;-70
2022/11/23 03:08:22;;;;;;;20.50;14.47;;;;;;;;;;5077853;28;20863;-70
2022/11/23 03:11:13;;;;;;;20.93;14.60;;;;;;;;;;5071058;28;20485;-71
2022/11/23 03:14:07;;;;;;;20.23;14.83;;;;;;;;;;5067911;28;20466;-71
2022/11/23 03:17:01;;;;;;;22.57;15.83;;;;;;;;;;5072485;28;20445;-70
2022/11/23 03:20:03;;;;;;;20.00;15.07;;;;;;;;;;5071618;28;21065;-71
2022/11/23 03:22:52;;;;;;;21.17;16.07;;;;;;;;;;5071193;28;20925;-71
2022/11/23 03:25:42;;;;;;;21.13;16.70;;;;;;;;;;5073206;28;20675;-70
2022/11/23 03:28:44;;;;;;;19.90;14.83;;;;;;;;;;5076403;28;20469;-70
2022/11/23 03:31:35;;;;;;;19.23;13.63;;;;;;;;;;5066553;28;20969;-70
2022/11/23 03:34:29;;;;;;;19.57;14.50;;;;;;;;;;5071114;28;20454;-71
2022/11/23 03:37:19;;;;;;;21.00;16.00;;;;;;;;;;5078045;28;20453;-70
2022/11/23 03:40:10;;;;;;;17.90;13.63;;;;;;;;;;5076218;28;20460;-71
2022/11/23 03:43:00;;;;;;;24.53;16.03;;;;;;;;;;5074192;28;20495;-71
2022/11/23 03:45:48;;;;;;;18.30;14.40;;;;;;;;;;5077466;28;20459;-71
2022/11/23 03:48:37;;;;;;;17.83;14.10;;;;;;;;;;5079087;28;20494;-71
2022/11/23 03:51:25;;;;;;;18.30;14.50;;;;;;;;;;5075115;28;20480;-70
2022/11/23 03:54:15;;;;;;;20.00;14.77;;;;;;;;;;5076175;28;20972;-70
2022/11/23 03:57:14;;;;;;;18.67;13.70;;;;;;;;;;5078011;28;20490;-70
2022/11/23 04:00:03;;;;;;;20.07;15.03;;;;;;;;;;5077590;28;20453;-71
2022/11/23 04:02:51;;;;;;;20.90;14.77;;;;;;;;;;5072475;28;20491;-71
2022/11/23 04:05:44;;;;;;;20.00;13.70;;;;;;;;;;5074723;28;21005;-71
2022/11/23 04:08:39;;;;;;;20.27;13.90;;;;;;;;;;5076374;28;20501;-70
2022/11/23 04:11:33;;;;;;;19.20;14.17;;;;;;;;;;5075694;28;20473;-71
2022/11/23 04:14:22;;;;;;;22.40;15.10;;;;;;;;;;5074204;28;20979;-70
2022/11/23 04:17:12;;;;;;;18.43;13.23;;;;;;;;;;5075193;28;20460;-71
2022/11/23 04:20:05;;;;;;;18.60;13.47;;;;;;;;;;5075263;28;20456;-71
2022/11/23 04:22:57;;;;;;;18.07;14.60;;;;;;;;;;5076037;28;20481;-70
2022/11/23 04:26:00;;;;;;;19.40;13.90;;;;;;;;;;5076996;28;20611;-71
2022/11/23 04:28:54;;;;;;;17.93;12.93;;;;;;;;;;5064321;28;20482;-71
2022/11/23 04:31:51;;;;;;;21.20;15.63;;;;;;;;;;5074480;28;21081;-70
2022/11/23 04:34:44;;;;;;;17.47;13.70;;;;;;;;;;5072402;28;20460;-70
2022/11/23 04:37:42;;;;;;;19.37;14.37;;;;;;;;;;5071410;28;20441;-70
2022/11/23 04:40:33;;;;;;;19.40;14.03;;;;;;;;;;5070328;28;20458;-70
2022/11/23 04:43:23;;;;;;;20.20;15.10;;;;;;;;;;5072152;28;20468;-70
2022/11/23 04:46:16;;;;;;;19.80;13.37;;;;;;;;;;5073277;28;20809;-70
2022/11/23 04:49:09;;;;;;;18.83;14.00;;;;;;;;;;5074075;28;20473;-71
2022/11/23 04:51:57;;;;;;;16.27;13.43;;;;;;;;;;5076834;28;20481;-70
2022/11/23 04:55:08;;;;;;;18.10;13.30;;;;;;;;;;5075550;28;20452;-71
2022/11/23 04:58:04;;;;;;;15.47;12.70;;;;;;;;;;5075233;28;20458;-70
2022/11/23 05:00:54;;;;;;;16.33;12.33;;;;;;;;;;5073888;28;20482;-70
2022/11/23 05:03:48;;;;;;;18.33;13.37;;;;;;;;;;5075211;28;20644;-71
2022/11/23 05:06:36;;;;;;;18.43;13.33;;;;;;;;;;5074543;28;20465;-71
2022/11/23 05:09:33;;;;;;;18.10;13.67;;;;;;;;;;5091724;28;20477;-71
2022/11/23 05:12:24;;;;;;;17.30;14.00;;;;;;;;;;5095826;28;20496;-70
2022/11/23 05:15:21;;;;;;;17.93;12.03;;;;;;;;;;5097340;28;21730;-70
2022/11/23 05:18:12;;;;;;;13.67;12.00;;;;;;;;;;5096619;28;20435;-70
2022/11/23 05:21:06;;;;;;;24.50;14.77;;;;;;;;;;5096822;28;20480;-71
2022/11/23 05:23:56;;;;;;;16.80;13.70;;;;;;;;;;5097956;28;20482;-70
2022/11/23 05:26:47;;;;;;;17.80;13.63;;;;;;;;;;5091709;28;20512;-70
2022/11/23 05:29:46;;;;;;;16.07;13.20;;;;;;;;;;5092119;28;20473;-70
2022/11/23 05:32:41;;;;;;;17.23;13.47;;;;;;;;;;5085836;28;20531;-70
2022/11/23 05:35:32;;;;;;;16.33;13.13;;;;;;;;;;5087640;28;20438;-71
2022/11/23 05:38:29;;;;;;;19.77;13.30;;;;;;;;;;5088305;28;20458;-70
2022/11/23 05:41:17;;;;;;;16.73;13.20;;;;;;;;;;5091272;28;20487;-71
2022/11/23 05:44:09;;;;;;;19.63;16.43;;;;;;;;;;5090469;28;20465;-71
2022/11/23 05:46:57;;;;;;;16.53;13.50;;;;;;;;;;5076288;28;20453;-71
2022/11/23 05:49:49;;;;;;;16.37;13.40;;;;;;;;;;5066823;28;20482;-70
2022/11/23 05:52:40;;;;;;;18.13;12.77;;;;;;;;;;5060175;28;20503;-71
2022/11/23 05:55:32;;;;;;;15.97;12.10;;;;;;;;;;5066914;28;20465;-71
2022/11/23 05:58:23;;;;;;;16.77;12.80;;;;;;;;;;5068085;28;20508;-71
2022/11/23 06:01:13;;;;;;;14.53;11.97;;;;;;;;;;5070019;28;20859;-71
2022/11/23 06:04:05;;;;;;;18.10;13.27;;;;;;;;;;5067473;28;20449;-71
2022/11/23 06:06:59;;;;;;;15.20;12.50;;;;;;;;;;5070493;28;20538;-71
2022/11/23 06:09:48;;;;;;;18.30;13.63;;;;;;;;;;5059798;28;20539;-71
2022/11/23 06:12:38;;;;;;;14.43;12.83;;;;;;;;;;5062648;28;20488;-71
2022/11/23 06:15:29;;;;;;;18.20;13.10;;;;;;;;;;5060104;28;20610;-71
2022/11/23 06:18:22;;;;;;;17.43;13.43;;;;;;;;;;5073331;28;20450;-71
2022/11/23 06:21:15;;;;;;;15.77;12.70;;;;;;;;;;5069489;28;20483;-70
2022/11/23 06:24:04;;;;;;;18.00;12.70;;;;;;;;;;5064391;28;20479;-70
2022/11/23 06:26:53;;;;;;;17.00;13.40;;;;;;;;;;5070061;28;20459;-71
2022/11/23 06:29:53;;;;;;;16.93;13.53;;;;;;;;;;5070479;28;20474;-71
2022/11/23 06:32:42;;;;;;;18.80;11.40;;;;;;;;;;5068890;28;20483;-70
2022/11/23 06:35:32;;;;;;;16.97;12.40;;;;;;;;;;5072022;28;20462;-71
2022/11/23 06:38:24;;;;;;;16.90;12.70;;;;;;;;;;5073787;28;21015;-71
2022/11/23 06:41:21;;;;;;;14.40;11.87;;;;;;;;;;5072927;28;20471;-71
2022/11/23 06:44:20;;;;;;;15.60;13.03;;;;;;;;;;5077106;28;20488;-72
2022/11/23 06:47:09;;;;;;;16.63;12.70;;;;;;;;;;5072416;28;20463;-71
2022/11/23 06:50:10;;;;;;;14.40;11.53;;;;;;;;;;5069705;28;20483;-71
2022/11/23 06:53:00;;;;;;;15.60;12.90;;;;;;;;;;5067614;28;20930;-71
2022/11/23 06:55:50;;;;;;;14.50;11.70;;;;;;;;;;5066690;28;20459;-70
2022/11/23 06:58:49;;;;;;;15.90;13.10;;;;;;;;;;5072103;28;20453;-71
2022/11/23 07:01:38;;;;;;;15.90;12.03;;;;;;;;;;5059946;28;21386;-70
2022/11/23 07:04:31;;;;;;;15.73;11.83;;;;;;;;;;5065310;28;21068;-71
2022/11/23 07:07:21;;;;;;;15.40;11.30;;;;;;;;;;5066714;28;20460;-71
2022/11/23 07:10:12;;;;;;;16.77;12.43;;;;;;;;;;5070419;28;21055;-70
2022/11/23 07:13:09;;;;;;;15.87;12.00;;;;;;;;;;5075023;28;20490;-71
2022/11/23 07:15:58;;;;;;;16.70;12.90;;;;;;;;;;5075068;28;20464;-71
2022/11/23 07:18:58;;;;;;;16.20;11.57;;;;;;;;;;5069181;28;20492;-71
2022/11/23 07:21:51;;;;;;;16.30;11.80;;;;;;;;;;5073336;28;20479;-71
2022/11/23 07:24:43;;;;;;;12.90;11.30;;;;;;;;;;5076429;28;20480;-71
2022/11/23 07:27:38;;;;;;;14.43;10.83;;;;;;;;;;5073412;28;20465;-71
2022/11/23 07:30:33;;;;;;;14.10;11.50;;;;;;;;;;5068394;28;20482;-71
2022/11/23 07:33:25;;;;;;;18.33;11.83;;;;;;;;;;5075019;28;20492;-71
2022/11/23 07:36:14;;;;;;;13.00;11.27;;;;;;;;;;5065253;28;20981;-71
2022/11/23 07:39:08;;;;;;;20.03;11.27;;;;;;;;;;5070369;28;20445;-71
2022/11/23 07:41:57;;;;;;;14.70;11.20;;;;;;;;;;5074961;28;20471;-71
2022/11/23 07:45:06;;;;;;;14.87;10.83;;;;;;;;;;5073244;28;20448;-71
2022/11/23 07:48:03;;;;;;;14.70;11.63;;;;;;;;;;5072034;28;20908;-71
2022/11/23 07:51:05;;;;;;;18.87;12.50;;;;;;;;;;5072143;28;20481;-71
2022/11/23 07:53:59;;;;;;;11.50;9.97;;;;;;;;;;5073290;28;20449;-70
2022/11/23 07:56:59;;;;;;;13.80;10.70;;;;;;;;;;5074864;28;20477;-70
2022/11/23 07:59:56;;;;;;;15.17;10.73;;;;;;;;;;5070658;28;20444;-71
2022/11/23 08:02:48;;;;;;;15.10;11.43;;;;;;;;;;5065253;28;21004;-70
2022/11/23 08:05:59;;;;;;;15.33;11.00;;;;;;;;;;5072485;28;20468;-71
2022/11/23 08:08:55;;;;;;;14.40;11.80;;;;;;;;;;5074618;28;20453;-70
2022/11/23 08:11:50;;;;;;;14.30;11.40;;;;;;;;;;5069339;28;21169;-71
2022/11/23 08:14:54;;;;;;;14.63;10.80;;;;;;;;;;5065215;28;21138;-70
2022/11/23 08:17:52;;;;;;;14.07;10.50;;;;;;;;;;5067696;28;20598;-73
2022/11/23 08:20:40;;;;;;;15.23;10.37;;;;;;;;;;5056842;28;21477;-71
2022/11/23 08:23:36;;;;;;;15.53;11.57;;;;;;;;;;5073538;28;20497;-73
2022/11/23 08:26:27;;;;;;;13.07;11.60;;;;;;;;;;5075534;28;20451;-73
2022/11/23 08:29:21;;;;;;;13.73;10.50;;;;;;;;;;5073641;28;20479;-73
2022/11/23 08:32:14;;;;;;;15.40;10.70;;;;;;;;;;5072503;28;20479;-74
2022/11/23 08:35:13;;;;;;;13.10;10.90;;;;;;;;;;5072312;28;21326;-74
2022/11/23 08:38:03;;;;;;;12.33;10.83;;;;;;;;;;5069530;28;20460;-73
2022/11/23 08:40:58;;;;;;;13.40;10.80;;;;;;;;;;5075015;28;20469;-74
2022/11/23 08:43:49;;;;;;;15.63;10.10;;;;;;;;;;5072008;28;20469;-72
2022/11/23 08:46:41;;;;;;;13.13;9.93;;;;;;;;;;5073740;28;20556;-74
2022/11/23 08:49:33;;;;;;;13.80;11.27;;;;;;;;;;5071774;28;20473;-74
2022/11/23 08:52:26;;;;;;;11.40;10.20;;;;;;;;;;5066085;28;20488;-78
2022/11/23 08:55:22;;;;;;;13.43;9.20;;;;;;;;;;5066915;28;20850;-75
2022/11/23 08:58:15;;;;;;;18.97;10.57;;;;;;;;;;5073349;28;20961;-74
2022/11/23 09:01:13;;;;;;;12.53;10.37;;;;;;;;;;5069672;28;20484;-74
2022/11/23 09:04:03;;;;;;;10.80;9.67;;;;;;;;;;5072648;28;20477;-70
2022/11/23 09:06:55;;;;;;;12.07;9.57;;;;;;;;;;5076847;28;20458;-70
2022/11/23 09:09:46;;;;;;;12.63;9.43;;;;;;;;;;5076164;28;20931;-70
2022/11/23 09:12:37;;;;;;;11.60;9.60;;;;;;;;;;5071952;28;20477;-71
2022/11/23 09:15:25;;;;;;;11.10;9.40;;;;;;;;;;5065399;28;20953;-70
2022/11/23 09:18:17;;;;;;;13.33;10.00;;;;;;;;;;5072171;28;20843;-70
2022/11/23 09:21:07;;;;;;;15.80;10.03;;;;;;;;;;5059661;28;20485;-70
2022/11/23 09:24:02;;;;;;;10.20;8.97;;;;;;;;;;5062397;28;20457;-70
2022/11/23 09:26:53;;;;;;;9.90;8.80;;;;;;;;;;5073135;28;20462;-70
2022/11/23 09:29:43;;;;;;;11.73;9.87;;;;;;;;;;5071013;28;20446;-70
2022/11/23 09:32:34;;;;;;;12.30;9.00;;;;;;;;;;5069063;28;20485;-70
2022/11/23 09:35:28;;;;;;;11.00;9.10;;;;;;;;;;5076395;28;20452;-70
2022/11/23 09:38:23;;;;;;;11.20;9.27;;;;;;;;;;5076480;28;20952;-70
2022/11/23 09:41:47;;;;;;;9.67;8.67;;;;;;;;;;5076938;28;20470;-70
2022/11/23 09:44:48;;;;;;;10.50;8.43;;;;;;;;;;5075237;28;20908;-70
2022/11/23 09:47:54;;;;;;;12.20;9.60;;;;;;;;;;5076959;28;21269;-70
2022/11/23 09:50:49;;;;;;;11.37;8.90;;;;;;;;;;5072897;28;20468;-70
2022/11/23 09:53:47;;;;;;;11.30;9.70;;;;;;;;;;5071919;28;20473;-70
2022/11/23 09:56:43;;;;;;;12.20;8.67;;;;;;;;;;5074395;28;20459;-70
2022/11/23 09:59:40;;;;;;;9.73;8.60;;;;;;;;;;5069642;28;20456;-70
2022/11/23 10:02:30;;;;;;;11.10;8.50;;;;;;;;;;5068046;28;20482;-70
2022/11/23 10:05:33;;;;;;;12.73;8.50;;;;;;;;;;5072838;28;20555;-70
2022/11/23 10:08:29;;;;;;;9.63;8.33;;;;;;;;;;5074464;28;20980;-70
2022/11/23 10:11:27;;;;;;;9.33;8.47;;;;;;;;;;5078548;28;20841;-70
2022/11/23 10:14:30;;;;;;;11.33;9.20;;;;;;;;;;5074122;28;20979;-70
2022/11/23 10:17:27;;;;;;;11.50;8.43;;;;;;;;;;5073837;28;20468;-70
2022/11/23 10:20:26;;;;;;;11.43;8.57;;;;;;;;;;5075118;28;20457;-70
2022/11/23 10:23:18;;;;;;;10.70;7.80;;;;;;;;;;5074294;28;20483;-70
2022/11/23 10:26:11;;;;;;;10.40;8.10;;;;;;;;;;5077086;28;20516;-70
2022/11/23 10:29:12;;;;;;;10.93;8.70;;;;;;;;;;5075371;28;20455;-70
2022/11/23 10:32:11;;;;;;;11.30;8.63;;;;;;;;;;5069535;28;20572;-70
2022/11/23 10:35:03;;;;;;;10.10;7.97;;;;;;;;;;5074600;28;20450;-70
2022/11/23 10:38:01;;;;;;;9.03;8.20;;;;;;;;;;5076165;28;20513;-70
2022/11/23 10:40:57;;;;;;;8.60;7.10;;;;;;;;;;5073623;28;20458;-70
2022/11/23 10:43:51;;;;;;;10.17;8.10;;;;;;;;;;5076520;28;20476;-70
2022/11/23 10:46:40;;;;;;;11.27;7.77;;;;;;;;;;5072395;28;20465;-70
2022/11/23 10:49:45;;;;;;;8.73;7.50;;;;;;;;;;5079315;28;20452;-70
2022/11/23 10:52:33;;;;;;;8.70;7.30;;;;;;;;;;5077162;28;20477;-70
2022/11/23 10:55:33;;;;;;;9.17;7.37;;;;;;;;;;5079719;28;20442;-70
2022/11/23 10:58:28;;;;;;;8.40;7.60;;;;;;;;;;5075458;28;20915;-70
2022/11/23 11:01:21;;;;;;;8.57;7.40;;;;;;;;;;5077056;28;20537;-70
2022/11/23 11:04:22;;;;;;;12.20;7.20;;;;;;;;;;5072641;28;20809;-70
2022/11/23 11:07:13;;;;;;;7.87;6.40;;;;;;;;;;5079145;28;20454;-70
2022/11/23 11:10:06;;;;;;;9.03;8.00;;;;;;;;;;5080747;28;20596;-70
2022/11/23 11:13:00;;;;;;;9.57;6.80;;;;;;;;;;5075124;28;20537;-70
2022/11/23 11:15:57;;;;;;;11.70;7.10;;;;;;;;;;5068760;28;20460;-70
2022/11/23 11:18:46;;;;;;;8.30;6.60;;;;;;;;;;5077989;28;20466;-70
2022/11/23 11:21:37;;;;;;;9.37;7.10;;;;;;;;;;5077856;28;20541;-70
2022/11/23 11:24:33;;;;;;;7.70;6.17;;;;;;;;;;5077857;28;20475;-70
2022/11/23 11:27:27;;;;;;;9.60;5.93;;;;;;;;;;5070902;28;20456;-70
2022/11/23 11:30:22;;;;;;;8.53;6.33;;;;;;;;;;5075778;28;20486;-70
2022/11/23 11:33:15;;;;;;;8.57;6.60;;;;;;;;;;5084136;28;20465;-70
2022/11/23 11:36:06;;;;;;;8.10;6.43;;;;;;;;;;5081799;28;20824;-71
2022/11/23 11:38:59;;;;;;;6.73;5.80;;;;;;;;;;5078771;28;21019;-70
2022/11/23 11:42:22;;;;;;;6.43;5.60;;;;;;;;;;5077593;28;20941;-70
2022/11/23 11:45:20;;;;;;;8.83;6.87;;;;;;;;;;5077117;28;20457;-70
2022/11/23 11:48:13;;;;;;;7.67;6.40;;;;;;;;;;5074460;28;20457;-70
2022/11/23 11:51:07;;;;;;;8.47;6.50;;;;;;;;;;5077632;28;20858;-70
2022/11/23 11:54:03;;;;;;;7.63;6.93;;;;;;;;;;5081630;28;20510;-70
2022/11/23 11:56:53;;;;;;;6.90;6.20;;;;;;;;;;5077707;28;20453;-70
2022/11/23 11:59:45;;;;;;;7.40;6.30;;;;;;;;;;5079628;28;21008;-70
2022/11/23 12:02:42;;;;;;;6.83;6.10;;;;;;;;;;5073782;28;20481;-70
2022/11/23 12:05:37;;;;;;;7.73;6.87;;;;;;;;;;5066842;28;20538;-70
2022/11/23 12:08:35;;;;;;;7.83;6.50;;;;;;;;;;5077755;28;20454;-74
2022/11/23 12:11:26;;;;;;;10.80;8.73;;;;;;;;;;5078914;28;20473;-70
2022/11/23 12:14:19;;;;;;;8.83;7.63;;;;;;;;;;5069849;28;20459;-70
2022/11/23 12:17:11;;;;;;;7.67;6.80;;;;;;;;;;5074021;28;20449;-70
2022/11/23 12:20:28;;;;;;;7.43;6.60;;;;;;;;;;5076842;28;20453;-70
2022/11/23 12:23:23;;;;;;;9.23;6.80;;;;;;;;;;5080458;28;20468;-70
2022/11/23 12:26:20;;;;;;;8.77;6.87;;;;;;;;;;5077822;28;20481;-70
2022/11/23 12:29:36;;;;;;;9.53;6.70;;;;;;;;;;5074568;28;20468;-70
2022/11/23 12:32:33;;;;;;;7.40;6.70;;;;;;;;;;5073169;28;20858;-70
2022/11/23 12:35:31;;;;;;;9.83;5.90;;;;;;;;;;5073198;28;20456;-71
2022/11/23 12:38:34;;;;;;;7.00;6.40;;;;;;;;;;5074448;28;20453;-70
2022/11/23 12:41:37;;;;;;;6.73;6.13;;;;;;;;;;5075582;28;21213;-70
2022/11/23 12:44:47;;;;;;;6.40;5.80;;;;;;;;;;5077414;28;20591;-70
2022/11/23 12:47:41;;;;;;;6.30;5.70;;;;;;;;;;5077885;28;20453;-70
2022/11/23 12:50:43;;;;;;;6.03;5.37;;;;;;;;;;5075015;28;20450;-70
2022/11/23 12:53:42;;;;;;;6.70;5.43;;;;;;;;;;5065013;28;20577;-70
2022/11/23 12:56:45;;;;;;;8.07;5.10;;;;;;;;;;5072100;28;20538;-70
2022/11/23 12:59:40;;;;;;;5.50;5.00;;;;;;;;;;5072132;28;20460;-70
2022/11/23 13:02:45;;;;;;;5.17;4.67;;;;;;;;;;5070751;28;20556;-70
2022/11/23 13:06:02;;;;;;;6.73;5.07;;;;;;;;;;5072133;28;21041;-70
2022/11/23 13:09:12;;;;;;;6.83;5.70;;;;;;;;;;5074410;28;20466;-70
2022/11/23 13:12:13;;;;;;;7.40;5.73;;;;;;;;;;5069518;28;20477;-70
2022/11/23 13:15:18;;;;;;;6.63;5.70;;;;;;;;;;5063207;28;20534;-70
2022/11/23 13:18:16;;;;;;;6.00;5.07;;;;;;;;;;5073768;28;21419;-70
2022/11/23 13:21:13;;;;;;;5.73;5.10;;;;;;;;;;5072289;28;20486;-70
2022/11/23 13:24:30;;;;;;;6.40;5.00;;;;;;;;;;5072687;28;20465;-70
2022/11/23 13:27:46;;;;;;;6.60;4.77;;;;;;;;;;5056895;28;20472;-70
2022/11/23 13:30:44;;;;;;;5.67;4.73;;;;;;;;;;5076119;28;20495;-70
2022/11/23 13:33:56;;;;;;;5.90;4.90;;;;;;;;;;5078020;28;20651;-70
2022/11/23 13:37:02;;;;;;;6.23;4.43;;;;;;;;;;5072832;28;20469;-70
2022/11/23 13:40:14;;;;;;;6.20;5.30;;;;;;;;;;5077588;28;20971;-70
2022/11/23 13:43:16;;;;;;;7.17;5.07;;;;;;;;;;5071600;28;20582;-70
2022/11/23 13:46:29;;;;;;;6.03;4.80;;;;;;;;;;5072580;28;20449;-70
2022/11/23 13:49:33;;;;;;;6.83;5.30;;;;;;;;;;5069699;28;21003;-69
2022/11/23 13:52:35;;;;;;;5.70;4.53;;;;;;;;;;5069048;28;21137;-70
2022/11/23 13:55:35;;;;;;;6.57;4.60;;;;;;;;;;5060801;28;20506;-70
2022/11/23 13:58:44;;;;;;;6.00;4.67;;;;;;;;;;5057022;28;20441;-70
2022/11/23 14:01:52;;;;;;;6.60;4.50;;;;;;;;;;5071492;28;20468;-70
2022/11/23 14:04:44;;;;;;;4.90;4.40;;;;;;;;;;5076375;28;20457;-70
2022/11/23 14:07:45;;;;;;;8.03;5.00;;;;;;;;;;5071288;28;20548;-70
2022/11/23 14:10:39;;;;;;;5.40;4.90;;;;;;;;;;5063541;28;20496;-70
2022/11/23 14:13:39;;;;;;;9.87;6.07;;;;;;;;;;5052832;28;20529;-69
2022/11/23 14:16:56;;;;;;;5.47;4.27;;;;;;;;;;5072095;28;20479;-70
2022/11/23 14:20:10;;;;;;;7.00;4.93;;;;;;;;;;5074132;28;20891;-71
2022/11/23 14:23:04;;;;;;;7.83;5.47;;;;;;;;;;5070784;28;20566;-71
2022/11/23 14:26:11;;;;;;;5.40;4.90;;;;;;;;;;5061812;28;20453;-71
2022/11/23 14:29:12;;;;;;;6.80;4.30;;;;;;;;;;5063005;28;20456;-71
2022/11/23 14:32:24;;;;;;;5.27;3.87;;;;;;;;;;5062929;28;21046;-71
2022/11/23 14:35:21;;;;;;;6.60;4.07;;;;;;;;;;5075128;28;20461;-71
2022/11/23 14:38:33;;;;;;;4.33;3.93;;;;;;;;;;5068441;28;20445;-71
2022/11/23 14:41:25;;;;;;;4.20;3.80;;;;;;;;;;5069255;28;20605;-71
2022/11/23 14:44:24;;;;;;;4.73;3.77;;;;;;;;;;5067561;28;20468;-71
2022/11/23 14:47:12;;;;;;;4.63;4.13;;;;;;;;;;5071688;28;20452;-71
2022/11/23 14:50:04;;;;;;;6.43;4.63;;;;;;;;;;5055148;28;20465;-71
2022/11/23 14:53:02;;;;;;;7.17;5.00;;;;;;;;;;5068980;28;20984;-71
2022/11/23 14:55:51;;;;;;;6.50;4.90;;;;;;;;;;5069515;28;20445;-71
2022/11/23 14:58:45;;;;;;;6.23;4.90;;;;;;;;;;5066407;28;20450;-71
2022/11/23 15:01:34;;;;;;;7.20;5.30;;;;;;;;;;5068414;28;20496;-71
2022/11/23 15:04:25;;;;;;;6.53;5.83;;;;;;;;;;5070383;28;20484;-71
2022/11/23 15:07:19;;;;;;;6.70;5.80;;;;;;;;;;5071497;28;20462;-71
2022/11/23 15:10:17;;;;;;;7.60;5.97;;;;;;;;;;5064425;28;20462;-71
2022/11/23 15:13:19;;;;;;;9.40;5.90;;;;;;;;;;5076825;28;20480;-71
2022/11/23 15:16:13;;;;;;;9.63;6.30;;;;;;;;;;5069135;28;20451;-71
2022/11/23 15:19:17;;;;;;;9.87;6.47;;;;;;;;;;5069541;28;20464;-71
2022/11/23 15:22:19;;;;;;;10.50;6.30;;;;;;;;;;5067311;28;20626;-71
2022/11/23 15:25:14;;;;;;;6.23;5.63;;;;;;;;;;5062220;28;20465;-70
2022/11/23 15:28:04;;;;;;;8.07;6.20;;;;;;;;;;5061094;28;21438;-70
2022/11/23 15:30:57;;;;;;;7.73;5.97;;;;;;;;;;5059272;28;20515;-70
2022/11/23 15:33:50;;;;;;;8.67;6.03;;;;;;;;;;5061473;28;20481;-70
2022/11/23 15:36:41;;;;;;;7.40;6.20;;;;;;;;;;5077025;28;20449;-70
2022/11/23 15:39:37;;;;;;;7.80;6.30;;;;;;;;;;5077883;28;20991;-70
2022/11/23 15:42:28;;;;;;;8.13;6.33;;;;;;;;;;5078230;28;21195;-70
2022/11/23 15:45:59;;;;;;;9.60;7.00;;;;;;;;;;5076882;28;20809;-70
2022/11/23 15:48:55;;;;;;;7.03;6.27;;;;;;;;;;5078252;28;20532;-70
2022/11/23 15:51:45;;;;;;;8.80;6.60;;;;;;;;;;5072593;28;20484;-70
2022/11/23 15:54:44;;;;;;;7.20;6.47;;;;;;;;;;5081529;28;20465;-70
2022/11/23 15:57:39;;;;;;;8.47;6.60;;;;;;;;;;5077255;28;20453;-70
2022/11/23 16:00:28;;;;;;;7.30;6.60;;;;;;;;;;5075381;28;20470;-70
2022/11/23 16:03:44;;;;;;;9.30;6.57;;;;;;;;;;5077377;28;20473;-71
2022/11/23 16:06:41;;;;;;;8.27;6.63;;;;;;;;;;5067674;28;20487;-70
2022/11/23 16:09:35;;;;;;;8.23;6.13;;;;;;;;;;5073422;28;20452;-70
2022/11/23 16:12:48;;;;;;;9.93;7.33;;;;;;;;;;5077386;28;20491;-70
2022/11/23 16:15:43;;;;;;;8.20;6.80;;;;;;;;;;5071971;28;20453;-70
2022/11/23 16:18:32;;;;;;;7.13;6.43;;;;;;;;;;5079402;28;20449;-70
2022/11/23 16:21:24;;;;;;;9.20;7.23;;;;;;;;;;5073122;28;20466;-70
2022/11/23 16:24:23;;;;;;;9.60;6.60;;;;;;;;;;5075674;28;20488;-70
2022/11/23 16:27:16;;;;;;;8.27;6.80;;;;;;;;;;5072648;28;20441;-70
2022/11/23 16:30:05;;;;;;;9.33;7.10;;;;;;;;;;5070837;28;20462;-70
2022/11/23 16:32:59;;;;;;;8.23;7.17;;;;;;;;;;5071162;28;21817;-70
2022/11/23 16:35:48;;;;;;;9.90;6.87;;;;;;;;;;5076329;28;21003;-70
2022/11/23 16:38:38;;;;;;;7.93;7.10;;;;;;;;;;5077687;28;20479;-70
2022/11/23 16:41:30;;;;;;;7.90;7.07;;;;;;;;;;5075640;28;20473;-70
2022/11/23 16:44:23;;;;;;;8.13;6.90;;;;;;;;;;5075779;28;20762;-70
2022/11/23 16:47:22;;;;;;;7.37;6.60;;;;;;;;;;5074483;28;20461;-70
2022/11/23 16:50:13;;;;;;;8.03;6.97;;;;;;;;;;5076523;28;20453;-70
2022/11/23 16:53:11;;;;;;;8.20;7.30;;;;;;;;;;5077870;28;20481;-70
2022/11/23 16:56:07;;;;;;;9.17;7.47;;;;;;;;;;5079387;28;21016;-70
2022/11/23 16:58:58;;;;;;;9.60;7.37;;;;;;;;;;5073050;28;21253;-70
2022/11/23 17:04:52;;;;;;;7.70;7.00;;;;;;;;;;5078794;28;20530;-70
2022/11/23 17:07:41;;;;;;;8.43;7.23;;;;;;;;;;5077221;28;20457;-70
2022/11/23 17:10:42;;;;;;;8.27;7.43;;;;;;;;;;5081096;28;20530;-70
2022/11/23 17:13:40;;;;;;;8.70;7.80;;;;;;;;;;5087491;28;20517;-70
2022/11/23 17:16:32;;;;;;;8.80;7.47;;;;;;;;;;5095902;28;20472;-71